KFHR/FHR METAR and TAF weather

Enter ICAO airport designator
Station Type Date Time Source
KFHR METAR 2022/01/19 19:53 UTC NOAA

KFHR 191953Z AUTO 13004KT 10SM OVC014 09/06 A3029 RMK AO2 SLP259 T00890061 TSNO


Station Type Date Time Source
KFHR Decoded METAR 2022/01/19 19:53 UTC NOAA

FRIDAY HARBOR AIRPORT, WA, United States (KFHR) 48-31N 123-02W 32M
Jan 19, 2022 - 02:53 PM EST / 2022.01.19 1953 UTC
Wind: from the SE (130 degrees) at 5 MPH (4 KT):0
Visibility: 10 mile(s):0
Sky conditions: overcast
Temperature: 48.0 F (8.9 C)
Dew Point: 43.0 F (6.1 C)
Relative Humidity: 82%
Pressure (altimeter): 30.29 in. Hg (1025 hPa)
ob: KFHR 191953Z AUTO 13004KT 10SM OVC014 09/06 A3029 RMK AO2 SLP259 T00890061 TSNO
cycle: 20

Station Type Date Time Source
KFHR TAF UTC NOAA

Error!

Example: see airport list